Time;durP1;ratioP1;P1;durP2;ratioP2;P2;SDS_P1;SDS_P2;PMS_P1;PMS_P2;Temp;Humidity;BMP_temperature;BMP_pressure;BME280_temperature;BME280_humidity;BME280_pressure;Samples;Min_cycle;Max_cycle;Signal;HPM_P1;HPM_P2
2023/01/03 01:00:24;;;;;;;11.73;9.13;;;5.50;90.50;;;;;;3860189;22;20479;-89
2023/01/03 02:02:46;;;;;;;14.80;9.87;;;4.90;90.80;;;;;;5031148;28;20245;-94
2023/01/03 02:05:12;;;;;;;13.57;9.50;;;4.90;90.90;;;;;;5034537;28;20185;-93
2023/01/03 07:52:06;;;;;;;16.03;11.80;;;2.70;91.20;;;;;;5012161;28;20232;-91
2023/01/03 07:54:51;;;;;;;13.33;11.27;;;2.60;91.20;;;;;;5021321;28;20686;-93
2023/01/03 07:57:17;;;;;;;19.03;12.43;;;2.70;91.10;;;;;;5031359;28;20196;-93
2023/01/03 08:00:20;;;;;;;14.80;11.00;;;2.60;91.20;;;;;;5025746;28;20172;-93
2023/01/03 08:05:35;;;;;;;13.63;11.57;;;2.60;91.40;;;;;;5548253;22;20240;-94
2023/01/03 08:08:02;;;;;;;17.57;12.00;;;2.60;91.70;;;;;;5036718;28;20239;-94
2023/01/03 08:13:17;;;;;;;13.90;11.43;;;2.80;91.50;;;;;;5032670;28;20241;-94
2023/01/03 08:15:45;;;;;;;17.33;13.20;;;2.70;91.50;;;;;;5028837;28;20185;-94
2023/01/03 08:18:11;;;;;;;19.20;13.67;;;2.70;91.60;;;;;;5028044;28;20181;-95
2023/01/03 08:20:37;;;;;;;21.80;15.50;;;2.80;91.70;;;;;;5029118;28;20197;-94
2023/01/03 08:23:02;;;;;;;18.87;16.40;;;2.80;91.90;;;;;;5028248;28;20201;-93
2023/01/03 08:25:28;;;;;;;18.57;15.30;;;2.80;92.00;;;;;;5026518;28;20287;-94
2023/01/03 08:27:57;;;;;;;20.90;15.87;;;2.80;92.00;;;;;;5025517;28;20186;-94
2023/01/03 08:30:23;;;;;;;22.87;15.73;;;2.80;92.10;;;;;;5025636;28;20188;-94
2023/01/03 08:32:49;;;;;;;21.57;16.03;;;2.90;92.30;;;;;;5027803;28;20271;-95
2023/01/03 08:35:15;;;;;;;20.67;16.57;;;2.90;92.30;;;;;;5024194;28;20177;-94
2023/01/03 08:37:43;;;;;;;19.00;16.40;;;3.00;92.40;;;;;;5024864;28;20517;-93
2023/01/03 08:40:10;;;;;;;19.87;16.73;;;3.10;92.40;;;;;;5026965;28;20181;-94
2023/01/03 08:42:44;;;;;;;29.70;18.47;;;3.20;92.40;;;;;;5032750;28;20205;-94
2023/01/03 08:47:46;;;;;;;28.70;18.33;;;3.30;92.50;;;;;;5580568;22;20473;-92
2023/01/03 08:50:15;;;;;;;23.97;18.67;;;3.40;92.50;;;;;;5031284;28;20192;-93
2023/01/03 08:52:40;;;;;;;24.87;18.87;;;3.50;92.40;;;;;;5027914;28;20206;-93
2023/01/03 08:55:09;;;;;;;34.67;20.63;;;3.50;92.40;;;;;;5027722;28;20594;-91
2023/01/03 08:57:35;;;;;;;23.57;18.73;;;3.60;92.40;;;;;;5020390;28;20181;-92
2023/01/03 09:00:00;;;;;;;22.13;19.20;;;3.60;92.40;;;;;;5018554;28;20236;-92
2023/01/03 09:02:26;;;;;;;24.17;19.07;;;3.70;92.40;;;;;;5018341;28;20201;-91
2023/01/03 09:04:51;;;;;;;26.87;20.97;;;3.70;92.20;;;;;;5018226;28;20643;-92
2023/01/03 09:07:17;;;;;;;32.67;20.43;;;3.80;92.10;;;;;;5019690;28;20233;-91
2023/01/03 09:09:43;;;;;;;23.00;19.00;;;3.80;92.10;;;;;;5029242;28;20178;-93
2023/01/03 09:12:08;;;;;;;31.93;21.13;;;3.70;92.00;;;;;;5159190;22;20285;-94
2023/01/03 09:14:34;;;;;;;26.03;19.63;;;3.70;92.00;;;;;;5046725;28;20181;-94
2023/01/03 09:16:59;;;;;;;31.70;18.70;;;3.70;92.00;;;;;;5041563;28;20319;-94
2023/01/03 09:19:25;;;;;;;27.37;19.00;;;3.80;92.00;;;;;;5049568;28;20173;-94
2023/01/03 09:21:50;;;;;;;30.83;19.23;;;3.80;92.00;;;;;;5055899;28;20192;-94
2023/01/03 09:24:16;;;;;;;27.93;19.57;;;3.90;91.90;;;;;;5053232;28;20183;-94
2023/01/03 09:26:41;;;;;;;23.97;18.63;;;3.90;91.70;;;;;;5051715;28;20166;-93
2023/01/03 09:31:42;;;;;;;26.10;18.77;;;4.00;91.40;;;;;;3864230;22;20323;-94
2023/01/03 09:37:11;;;;;;;24.00;21.57;;;4.10;91.10;;;;;;5447800;22;20241;-91
2023/01/03 09:39:47;;;;;;;25.93;19.73;;;4.20;91.00;;;;;;5039244;28;20186;-92
2023/01/03 10:10:53;;;;;;;22.23;17.43;;;4.20;90.20;;;;;;5697002;22;20259;-93
2023/01/03 10:13:39;;;;;;;19.83;15.93;;;4.20;90.00;;;;;;5023725;28;20259;-92
2023/01/03 10:16:08;;;;;;;20.73;17.23;;;4.30;89.80;;;;;;5019974;28;20538;-93
2023/01/03 10:19:11;;;;;;;21.93;16.73;;;4.30;89.60;;;;;;5027431;28;20246;-92
2023/01/03 10:22:04;;;;;;;18.67;16.57;;;4.40;89.60;;;;;;5014411;28;20199;-92
2023/01/03 10:24:35;;;;;;;19.20;17.30;;;4.40;89.60;;;;;;5017011;28;20171;-93
2023/01/03 10:27:16;;;;;;;23.37;17.00;;;4.40;89.50;;;;;;5027863;28;20171;-92
2023/01/03 10:29:45;;;;;;;19.33;17.53;;;4.50;89.40;;;;;;5092270;22;20241;-92
2023/01/03 10:42:35;;;;;;;23.93;17.63;;;4.70;89.70;;;;;;5574391;22;20223;-91
2023/01/03 10:45:22;;;;;;;27.63;19.57;;;4.80;89.80;;;;;;5025122;28;20207;-93
2023/01/03 10:47:59;;;;;;;25.73;20.33;;;4.80;90.00;;;;;;5027760;28;20184;-93
2023/01/03 10:50:25;;;;;;;21.73;17.20;;;4.80;89.80;;;;;;5023906;28;20341;-92
2023/01/03 10:53:09;;;;;;;26.37;18.33;;;4.90;90.00;;;;;;5023155;28;20220;-92
2023/01/03 10:55:45;;;;;;;22.47;17.40;;;5.10;89.90;;;;;;5021130;28;20184;-92
2023/01/03 11:03:24;;;;;;;22.60;17.00;;;5.40;87.80;;;;;;5406296;22;20239;-93
2023/01/03 11:06:15;;;;;;;21.47;19.10;;;5.40;87.20;;;;;;5044795;28;20179;-92
2023/01/03 11:08:45;;;;;;;22.17;18.73;;;5.50;86.90;;;;;;5031709;28;20194;-91
2023/01/03 12:05:46;;;;;;;19.73;18.07;;;6.90;78.10;;;;;;5229951;22;20228;-89
2023/01/03 12:08:36;;;;;;;18.23;16.93;;;7.00;77.80;;;;;;5057197;28;20173;-90
2023/01/03 12:11:30;;;;;;;19.63;17.80;;;7.10;77.00;;;;;;5051911;28;20165;-92
2023/01/03 12:14:11;;;;;;;20.63;18.57;;;7.20;77.10;;;;;;5044768;28;20200;-89
2023/01/03 12:16:50;;;;;;;19.43;17.60;;;7.40;77.20;;;;;;5032362;28;20615;-89
2023/01/03 12:19:40;;;;;;;19.13;17.67;;;7.40;77.70;;;;;;5031836;28;20545;-89
2023/01/03 12:22:25;;;;;;;19.33;17.60;;;7.50;77.10;;;;;;5031790;28;20196;-88
2023/01/03 12:25:05;;;;;;;20.13;18.27;;;7.30;76.40;;;;;;5035838;28;20168;-89
2023/01/03 12:27:39;;;;;;;20.97;18.53;;;7.30;75.40;;;;;;5035853;28;20164;-89
2023/01/03 12:30:13;;;;;;;19.83;17.97;;;7.30;75.10;;;;;;5035781;28;20195;-89
2023/01/03 12:32:48;;;;;;;19.97;18.37;;;7.40;74.60;;;;;;5036344;28;20235;-89
2023/01/03 12:35:33;;;;;;;21.73;20.03;;;7.40;73.90;;;;;;5035716;28;20182;-89
2023/01/03 12:38:01;;;;;;;22.30;20.20;;;7.50;73.30;;;;;;5036586;28;20638;-88
2023/01/03 12:40:48;;;;;;;21.30;19.40;;;7.30;72.60;;;;;;5037331;28;20187;-89
2023/01/03 12:43:24;;;;;;;19.73;18.17;;;7.40;75.10;;;;;;5037151;28;20231;-89
2023/01/03 12:46:04;;;;;;;21.70;19.77;;;7.40;75.20;;;;;;5035744;28;20222;-89
2023/01/03 12:49:00;;;;;;;20.83;18.73;;;7.60;75.00;;;;;;5036722;28;20165;-89
2023/01/03 12:51:26;;;;;;;21.83;19.93;;;7.60;75.40;;;;;;5035468;28;20184;-88
2023/01/03 12:54:37;;;;;;;22.10;20.10;;;7.50;73.50;;;;;;5035387;28;20224;-88
2023/01/03 12:57:05;;;;;;;20.57;18.90;;;7.50;74.00;;;;;;5030425;28;20253;-88
2023/01/03 13:00:03;;;;;;;23.07;20.77;;;7.50;74.50;;;;;;5035150;28;20173;-89
2023/01/03 13:02:49;;;;;;;23.20;21.10;;;7.60;74.00;;;;;;5034573;28;20201;-89
2023/01/03 13:05:48;;;;;;;19.30;17.57;;;7.70;74.90;;;;;;5035050;28;20758;-88
2023/01/03 13:08:31;;;;;;;19.37;17.50;;;7.60;74.30;;;;;;5035049;28;20211;-89
2023/01/03 13:11:02;;;;;;;18.03;16.30;;;7.50;74.10;;;;;;5036553;28;20593;-89
2023/01/03 13:13:28;;;;;;;19.07;17.27;;;7.50;73.80;;;;;;5034946;28;20197;-88
2023/01/03 13:15:54;;;;;;;18.97;17.10;;;7.60;74.30;;;;;;5034966;28;20735;-89
2023/01/03 13:18:22;;;;;;;18.07;16.47;;;7.50;74.30;;;;;;5035063;28;20664;-89
2023/01/03 13:20:52;;;;;;;20.70;18.70;;;7.60;73.80;;;;;;5036268;28;20196;-88
2023/01/03 13:23:40;;;;;;;19.70;17.80;;;7.60;74.60;;;;;;5036096;28;20197;-88
2023/01/03 13:26:15;;;;;;;20.27;18.33;;;7.60;76.00;;;;;;5036088;28;20200;-88
2023/01/03 13:28:41;;;;;;;21.43;19.33;;;7.50;76.50;;;;;;5035031;28;20183;-89
2023/01/03 13:31:18;;;;;;;19.53;17.53;;;7.30;77.20;;;;;;5034659;28;20177;-89
2023/01/03 13:33:56;;;;;;;20.57;18.67;;;7.30;77.90;;;;;;5034474;28;20291;-89
2023/01/03 13:36:23;;;;;;;19.80;18.00;;;7.20;78.60;;;;;;5034747;28;20203;-90
2023/01/03 13:38:49;;;;;;;19.37;17.47;;;7.20;79.30;;;;;;5036391;28;20272;-90
2023/01/03 13:41:35;;;;;;;22.80;18.77;;;7.20;79.60;;;;;;5034327;28;20215;-89
2023/01/03 13:44:27;;;;;;;22.53;20.10;;;7.10;79.50;;;;;;5034572;28;20660;-88
2023/01/03 13:46:53;;;;;;;21.20;18.53;;;7.00;79.60;;;;;;5035905;28;20193;-88
2023/01/03 13:49:22;;;;;;;22.17;19.70;;;6.90;79.80;;;;;;5035842;28;20207;-88
2023/01/03 13:51:53;;;;;;;22.40;18.63;;;6.80;79.80;;;;;;5035720;28;20173;-88
2023/01/03 13:54:19;;;;;;;21.00;18.73;;;6.70;80.10;;;;;;5035410;28;20195;-90
2023/01/03 13:56:44;;;;;;;21.73;18.17;;;6.60;80.10;;;;;;5034637;28;20173;-88
2023/01/03 13:59:13;;;;;;;20.40;17.93;;;6.50;80.20;;;;;;5035249;28;20169;-88
2023/01/03 14:01:57;;;;;;;21.83;19.50;;;6.40;80.40;;;;;;5033950;28;20177;-88
2023/01/03 14:04:34;;;;;;;19.23;17.23;;;6.30;80.50;;;;;;5033963;28;20172;-88
2023/01/03 14:07:40;;;;;;;19.53;17.67;;;6.30;80.70;;;;;;5033918;28;20234;-88
2023/01/03 14:10:31;;;;;;;18.87;16.47;;;6.30;80.80;;;;;;5033902;28;20173;-88
2023/01/03 14:13:12;;;;;;;19.50;16.60;;;6.30;80.90;;;;;;5035278;28;20193;-88
2023/01/03 14:15:37;;;;;;;21.87;17.37;;;6.20;81.30;;;;;;5033724;28;20264;-88
2023/01/03 14:18:27;;;;;;;19.27;17.23;;;6.20;81.60;;;;;;5033684;28;20211;-89
2023/01/03 14:20:55;;;;;;;20.67;16.67;;;6.00;81.90;;;;;;5034784;28;20168;-89
2023/01/03 14:23:23;;;;;;;18.83;16.83;;;6.10;82.10;;;;;;5033429;28;20196;-89
2023/01/03 14:25:49;;;;;;;19.40;17.40;;;6.10;82.30;;;;;;5034718;28;20203;-88
2023/01/03 14:28:24;;;;;;;17.10;15.23;;;6.10;82.50;;;;;;5033410;28;20714;-88
2023/01/03 14:30:53;;;;;;;17.37;15.67;;;6.10;82.70;;;;;;5033350;28;20207;-88
2023/01/03 14:33:23;;;;;;;16.03;14.40;;;6.10;82.70;;;;;;5033136;28;20730;-88
2023/01/03 14:36:00;;;;;;;16.83;15.13;;;6.20;83.00;;;;;;5034659;28;20169;-88
2023/01/03 14:38:31;;;;;;;18.17;16.27;;;6.10;82.60;;;;;;5034771;28;20673;-88
2023/01/03 14:40:57;;;;;;;16.63;14.77;;;6.00;82.60;;;;;;5034388;28;20256;-89
2023/01/03 14:43:27;;;;;;;17.27;15.63;;;6.00;82.70;;;;;;5034256;28;20686;-88
2023/01/03 14:45:54;;;;;;;28.50;15.70;;;6.10;82.70;;;;;;5033555;28;20272;-88
2023/01/03 14:48:21;;;;;;;18.63;16.63;;;6.00;82.90;;;;;;5032972;28;20650;-89
2023/01/03 14:50:48;;;;;;;17.17;15.00;;;6.00;83.10;;;;;;5032938;28;20223;-89
2023/01/03 14:53:14;;;;;;;18.03;15.33;;;5.90;83.40;;;;;;5034314;28;20283;-89
2023/01/03 14:55:48;;;;;;;19.40;14.77;;;5.90;83.50;;;;;;5032924;28;20628;-89
2023/01/03 14:58:27;;;;;;;16.80;14.83;;;5.80;83.70;;;;;;5034306;28;20200;-89
2023/01/03 15:00:54;;;;;;;38.00;22.40;;;5.80;83.90;;;;;;5032916;28;20176;-89
2023/01/03 15:03:20;;;;;;;27.07;19.07;;;5.90;84.10;;;;;;5032735;28;20243;-89
2023/01/03 15:05:51;;;;;;;18.20;16.13;;;5.90;83.90;;;;;;5032856;28;20227;-89
2023/01/03 15:08:25;;;;;;;18.57;16.47;;;5.80;84.10;;;;;;5034053;28;20630;-90
2023/01/03 15:10:56;;;;;;;20.13;16.23;;;5.80;84.50;;;;;;5033572;28;20215;-89
2023/01/03 15:13:47;;;;;;;18.37;14.57;;;5.60;85.10;;;;;;5039470;28;20192;-88
2023/01/03 15:16:24;;;;;;;23.02;18.00;;;5.70;85.60;;;;;;5040946;28;20406;-86
2023/01/03 15:18:55;;;;;;;23.73;17.53;;;5.70;85.90;;;;;;5035540;28;20184;-88
2023/01/03 15:21:21;;;;;;;21.10;15.83;;;5.70;86.20;;;;;;5034018;28;20171;-88
2023/01/03 15:23:48;;;;;;;23.53;16.27;;;5.60;86.60;;;;;;5033619;28;20205;-88
2023/01/03 15:26:42;;;;;;;23.00;15.97;;;5.60;86.80;;;;;;5032417;28;20700;-88
2023/01/03 15:29:16;;;;;;;19.70;16.63;;;5.50;87.20;;;;;;5031560;28;20188;-88
2023/01/03 15:31:56;;;;;;;20.03;16.47;;;5.60;87.50;;;;;;5032337;28;20180;-88
2023/01/03 15:34:28;;;;;;;26.87;16.83;;;5.50;87.80;;;;;;5033881;28;20192;-88
2023/01/03 15:37:03;;;;;;;20.10;17.30;;;5.50;88.00;;;;;;5032454;28;20180;-88
2023/01/03 15:39:44;;;;;;;24.60;17.83;;;5.60;88.10;;;;;;5034283;28;20164;-88
2023/01/03 15:45:19;;;;;;;26.00;20.17;;;5.60;88.40;;;;;;5033946;28;20291;-88
2023/01/03 15:47:46;;;;;;;26.80;20.23;;;5.60;88.50;;;;;;5032725;28;20165;-88
2023/01/03 15:50:14;;;;;;;29.27;20.23;;;5.60;88.70;;;;;;5032431;28;20172;-87
2023/01/03 15:52:40;;;;;;;30.27;21.17;;;5.60;88.90;;;;;;5032314;28;20674;-88
2023/01/03 15:55:08;;;;;;;33.73;23.23;;;5.60;89.10;;;;;;5033704;28;20172;-89
2023/01/03 15:57:33;;;;;;;29.97;23.33;;;5.60;89.20;;;;;;5032532;28;20657;-88
2023/01/03 16:00:01;;;;;;;32.78;25.95;;;5.60;89.40;;;;;;5032666;28;20504;-88
2023/01/03 16:02:29;;;;;;;31.87;24.83;;;5.60;89.50;;;;;;5032295;28;20557;-89
2023/01/03 16:04:54;;;;;;;33.23;25.00;;;5.60;89.70;;;;;;5033111;28;20602;-88
2023/01/03 16:07:20;;;;;;;41.20;25.73;;;5.50;89.90;;;;;;5033129;28;20176;-88
2023/01/03 16:09:46;;;;;;;37.80;27.33;;;5.50;90.00;;;;;;5033624;28;20185;-88
2023/01/03 16:12:16;;;;;;;36.70;26.73;;;5.60;90.10;;;;;;5032835;28;20242;-88
2023/01/03 16:14:44;;;;;;;35.17;26.53;;;5.60;90.10;;;;;;5032971;28;20169;-88
2023/01/03 16:17:16;;;;;;;36.37;25.43;;;5.60;90.20;;;;;;5032890;28;20187;-89
2023/01/03 16:19:41;;;;;;;33.73;25.77;;;5.50;90.30;;;;;;5033002;28;20195;-88
2023/01/03 16:22:10;;;;;;;36.63;26.00;;;5.60;90.40;;;;;;5033074;28;20622;-88
2023/01/03 16:24:42;;;;;;;31.17;25.53;;;5.60;90.40;;;;;;5037824;28;20149;-92
2023/01/03 16:27:18;;;;;;;35.27;27.27;;;5.60;90.40;;;;;;5043377;28;20230;-91
2023/01/03 16:29:43;;;;;;;37.70;27.77;;;5.60;90.50;;;;;;5036003;28;20180;-92
2023/01/03 16:37:36;;;;;;;43.00;28.17;;;5.60;90.70;;;;;;5850771;22;20247;-93
2023/01/03 16:40:05;;;;;;;33.30;27.53;;;5.60;90.80;;;;;;5035641;28;20165;-90
2023/01/03 16:50:30;;;;;;;;;;;;;;;;;;;;;
2023/01/03 16:53:07;;;;;;;39.27;30.10;;;5.70;91.10;;;;;;5016749;28;20210;-92
2023/01/03 16:55:36;;;;;;;40.73;31.47;;;5.70;91.10;;;;;;5012527;28;20176;-90
2023/01/03 16:58:02;;;;;;;40.23;30.50;;;5.70;91.10;;;;;;5013938;28;20738;-91
2023/01/03 17:00:30;;;;;;;36.07;28.67;;;5.80;91.00;;;;;;5017677;28;20173;-92
2023/01/03 17:02:59;;;;;;;33.93;28.27;;;5.80;91.10;;;;;;5020565;28;20231;-91
2023/01/03 17:05:26;;;;;;;42.30;33.73;;;5.80;90.90;;;;;;5021374;28;20189;-91
2023/01/03 17:08:00;;;;;;;38.30;30.63;;;5.80;91.00;;;;;;5022516;28;20192;-92
2023/01/03 17:10:30;;;;;;;36.40;29.30;;;5.80;90.90;;;;;;5017180;28;20181;-91
2023/01/03 17:12:58;;;;;;;37.70;29.57;;;5.80;90.90;;;;;;5016317;28;20255;-92
2023/01/03 17:15:24;;;;;;;40.13;29.60;;;5.80;90.80;;;;;;5018033;28;20207;-92
2023/01/03 17:17:49;;;;;;;39.27;29.63;;;5.80;90.80;;;;;;5017674;28;20189;-91
2023/01/03 17:20:17;;;;;;;39.83;29.13;;;5.80;90.90;;;;;;5019954;28;20173;-91
2023/01/03 17:22:55;;;;;;;44.30;31.27;;;5.80;91.00;;;;;;5017331;28;20202;-91
2023/01/03 17:25:20;;;;;;;44.23;33.53;;;5.70;91.10;;;;;;5019941;28;20223;-91
2023/01/03 17:27:50;;;;;;;44.33;33.17;;;5.80;91.20;;;;;;5020788;28;20244;-91
2023/01/03 17:30:22;;;;;;;43.00;34.00;;;5.80;91.30;;;;;;5018016;28;20537;-91
2023/01/03 17:32:47;;;;;;;41.17;33.30;;;5.70;91.30;;;;;;5017138;28;20699;-91
2023/01/03 17:35:14;;;;;;;37.03;31.33;;;5.80;91.40;;;;;;5015996;28;20224;-91
2023/01/03 17:37:41;;;;;;;46.87;33.43;;;5.70;91.50;;;;;;5019356;28;20177;-92
2023/01/03 17:40:26;;;;;;;45.93;33.33;;;5.80;91.60;;;;;;5021721;28;20297;-91
2023/01/03 17:42:55;;;;;;;51.23;34.20;;;5.70;91.70;;;;;;5031668;28;20241;-91
2023/01/03 17:50:57;;;;;;;52.70;43.80;;;5.70;91.90;;;;;;5030872;28;20457;-91
2023/01/03 17:53:23;;;;;;;55.10;38.60;;;5.70;91.90;;;;;;5022770;28;20216;-92
2023/01/03 17:55:49;;;;;;;52.87;36.50;;;5.70;91.90;;;;;;5037779;28;20231;-91
2023/01/03 18:08:40;;;;;;;49.57;35.80;;;5.70;92.30;;;;;;4852174;26;20213;-91
2023/01/03 18:11:09;;;;;;;53.43;37.73;;;5.70;92.40;;;;;;5037281;28;20200;-93
2023/01/03 18:13:36;;;;;;;49.83;37.40;;;5.70;92.40;;;;;;5381346;22;20244;-91
2023/01/03 18:16:03;;;;;;;51.53;37.97;;;5.70;92.40;;;;;;5037996;28;20220;-92
2023/01/03 18:18:30;;;;;;;50.20;38.20;;;5.80;92.50;;;;;;5036893;28;20178;-92
2023/01/03 18:20:56;;;;;;;55.23;39.30;;;5.70;92.50;;;;;;5037432;28;20200;-90
2023/01/03 18:23:34;;;;;;;56.23;39.83;;;5.70;92.50;;;;;;5040010;28;20173;-92
2023/01/03 18:26:11;;;;;;;53.17;39.23;;;5.60;92.50;;;;;;5031426;28;20165;-92
2023/01/03 18:28:37;;;;;;;49.93;38.20;;;5.50;92.50;;;;;;5039675;28;20252;-91
2023/01/03 18:31:04;;;;;;;50.00;36.70;;;5.50;92.50;;;;;;5037310;28;20174;-92
2023/01/03 18:33:33;;;;;;;52.40;37.20;;;5.50;92.50;;;;;;5125203;22;20213;-92
2023/01/03 18:36:02;;;;;;;49.97;37.27;;;5.40;92.50;;;;;;5038709;28;20249;-93
2023/01/03 18:38:35;;;;;;;50.27;38.47;;;5.30;92.50;;;;;;5033307;28;20186;-91
2023/01/03 18:41:01;;;;;;;56.03;37.37;;;5.30;92.50;;;;;;5023347;28;20236;-92
2023/01/03 18:43:26;;;;;;;55.27;47.30;;;5.30;92.60;;;;;;5033449;28;20446;-92
2023/01/03 18:45:52;;;;;;;51.97;39.67;;;5.30;92.60;;;;;;5114121;22;20232;-93
2023/01/03 18:48:20;;;;;;;51.00;38.37;;;5.30;92.60;;;;;;5049146;28;20195;-92
2023/01/03 18:50:50;;;;;;;56.23;40.13;;;5.30;92.70;;;;;;5054895;28;20294;-91
2023/01/03 18:53:20;;;;;;;55.03;38.20;;;5.30;92.70;;;;;;5057997;28;20217;-93
2023/01/03 18:55:47;;;;;;;49.00;39.13;;;5.30;92.80;;;;;;5057716;28;20157;-90
2023/01/03 18:58:31;;;;;;;55.13;38.83;;;5.30;92.80;;;;;;5058939;28;20249;-92
2023/01/03 19:03:33;;;;;;;55.73;38.70;;;5.30;92.90;;;;;;571611;22;20502;-90
2023/01/03 19:06:00;;;;;;;48.40;38.27;;;5.40;93.00;;;;;;5036115;28;20177;-89
2023/01/03 19:08:29;;;;;;;50.70;38.60;;;5.50;93.10;;;;;;5037169;28;20176;-92
2023/01/03 19:11:07;;;;;;;55.07;40.77;;;5.50;93.10;;;;;;5036978;28;20189;-92
2023/01/03 19:13:58;;;;;;;55.17;41.53;;;5.50;93.20;;;;;;5027858;28;20671;-91
2023/01/03 19:16:28;;;;;;;60.80;44.75;;;5.50;93.20;;;;;;5031588;28;20446;-92
2023/01/03 19:21:35;;;;;;;52.43;38.47;;;5.70;93.40;;;;;;5039427;22;20216;-93
2023/01/03 19:24:07;;;;;;;58.77;40.30;;;5.60;93.40;;;;;;5018292;28;20175;-92
2023/01/03 19:26:54;;;;;;;52.60;40.30;;;5.60;93.40;;;;;;5013170;28;20166;-92
2023/01/03 19:29:56;;;;;;;52.13;41.07;;;5.70;93.40;;;;;;5391705;22;20272;-91
2023/01/03 19:32:25;;;;;;;56.13;41.40;;;5.70;93.40;;;;;;5164541;22;20220;-94
2023/01/03 19:34:51;;;;;;;52.17;38.83;;;5.70;93.50;;;;;;5058420;28;20184;-92
2023/01/03 19:37:17;;;;;;;54.83;40.73;;;5.70;93.40;;;;;;5057435;28;20199;-92
2023/01/03 19:39:42;;;;;;;50.43;39.57;;;5.70;93.40;;;;;;5056682;28;20192;-93
2023/01/03 19:44:59;;;;;;;52.50;39.23;;;5.60;93.40;;;;;;5049918;28;20180;-93
2023/01/03 19:47:28;;;;;;;54.97;40.07;;;5.50;93.30;;;;;;5056218;28;20184;-93
2023/01/03 19:49:54;;;;;;;49.10;38.90;;;5.50;93.40;;;;;;5058100;28;20160;-94
2023/01/03 19:52:20;;;;;;;56.80;41.57;;;5.50;93.40;;;;;;5058037;28;20329;-95
2023/01/03 19:54:45;;;;;;;49.17;38.60;;;5.60;93.50;;;;;;5058093;28;20168;-94
2023/01/03 19:57:28;;;;;;;48.60;40.23;;;5.60;93.50;;;;;;5055881;28;20272;-93
2023/01/03 19:59:57;;;;;;;49.80;38.10;;;5.60;93.50;;;;;;5057221;28;20184;-93
2023/01/03 20:02:38;;;;;;;44.40;37.33;;;5.50;93.50;;;;;;5056342;28;20207;-93
2023/01/03 20:05:25;;;;;;;52.50;38.53;;;5.50;93.60;;;;;;5055835;28;20271;-93
2023/01/03 20:07:51;;;;;;;53.57;38.63;;;5.60;93.60;;;;;;5057608;28;20245;-92
2023/01/03 20:10:25;;;;;;;49.00;38.23;;;5.50;93.60;;;;;;5057523;28;20180;-92
2023/01/03 20:12:53;;;;;;;52.63;39.17;;;5.60;93.60;;;;;;5057796;28;20243;-90
2023/01/03 20:15:30;;;;;;;51.37;39.03;;;5.50;93.60;;;;;;5057807;28;20176;-93
2023/01/03 20:18:17;;;;;;;50.53;37.27;;;5.60;93.60;;;;;;5057845;28;20157;-94
2023/01/03 20:20:42;;;;;;;45.50;35.97;;;5.60;93.60;;;;;;5057831;28;20157;-93
2023/01/03 20:23:13;;;;;;;56.77;38.43;;;5.60;93.60;;;;;;5056426;28;20245;-93
2023/01/03 20:25:42;;;;;;;55.80;36.60;;;5.70;93.70;;;;;;5057477;28;20159;-91
2023/01/03 20:28:18;;;;;;;50.30;34.73;;;5.70;93.70;;;;;;5057516;28;20164;-93
2023/01/03 20:30:49;;;;;;;50.17;34.83;;;5.70;93.70;;;;;;5057640;28;20224;-92
2023/01/03 20:33:15;;;;;;;47.73;34.73;;;5.70;93.70;;;;;;5057389;28;20280;-91
2023/01/03 20:35:40;;;;;;;45.83;34.23;;;5.70;93.70;;;;;;5055540;28;20211;-92
2023/01/03 20:38:09;;;;;;;48.63;34.80;;;5.70;93.70;;;;;;5051445;28;20188;-93
2023/01/03 20:40:35;;;;;;;46.40;33.97;;;5.70;93.70;;;;;;5053183;28;20244;-93
2023/01/03 20:43:02;;;;;;;48.53;36.13;;;5.80;93.70;;;;;;5054993;28;20203;-93
2023/01/03 20:45:29;;;;;;;45.13;35.90;;;5.80;93.60;;;;;;5058341;28;20185;-92
2023/01/03 20:47:55;;;;;;;51.33;34.40;;;5.70;93.50;;;;;;5060197;28;20169;-91
2023/01/03 20:50:24;;;;;;;46.83;33.67;;;5.70;93.50;;;;;;5058562;28;20245;-93
2023/01/03 20:52:49;;;;;;;44.20;34.07;;;5.70;93.50;;;;;;5061130;28;20214;-93
2023/01/03 20:55:17;;;;;;;44.80;33.00;;;5.70;93.40;;;;;;5061437;28;20177;-91
2023/01/03 20:57:43;;;;;;;43.77;34.13;;;5.70;93.40;;;;;;5060736;28;20248;-91
2023/01/03 21:00:42;;;;;;;42.83;34.47;;;5.60;93.40;;;;;;5061295;28;20187;-91
2023/01/03 21:03:08;;;;;;;45.00;34.03;;;5.60;93.40;;;;;;5053751;28;20254;-93
2023/01/03 21:05:37;;;;;;;42.70;32.87;;;5.70;93.40;;;;;;5057376;28;20185;-92
2023/01/03 21:10:51;;;;;;;43.47;31.33;;;5.70;93.20;;;;;;5052403;28;20175;-93
2023/01/03 21:13:19;;;;;;;50.27;31.83;;;5.70;93.10;;;;;;5045618;28;20209;-93
2023/01/03 21:15:45;;;;;;;41.83;29.67;;;5.70;93.10;;;;;;5051516;28;20188;-93
2023/01/03 21:18:15;;;;;;;35.40;30.00;;;5.60;93.10;;;;;;5058010;28;20192;-91
2023/01/03 21:20:41;;;;;;;38.97;30.20;;;5.60;93.10;;;;;;5044957;28;20546;-91
2023/01/03 21:23:16;;;;;;;36.00;29.10;;;5.60;93.10;;;;;;5034789;28;20196;-90
2023/01/03 21:25:43;;;;;;;36.87;29.57;;;5.70;93.00;;;;;;5036030;28;20169;-91
2023/01/03 21:28:09;;;;;;;40.17;29.17;;;5.60;93.00;;;;;;5050401;22;20236;-92
2023/01/03 21:30:35;;;;;;;37.63;29.83;;;5.70;93.00;;;;;;5033035;28;20171;-92
2023/01/03 21:33:01;;;;;;;34.40;28.93;;;5.70;93.00;;;;;;5034997;28;20203;-92
2023/01/03 21:35:27;;;;;;;34.33;28.67;;;5.70;92.90;;;;;;5032027;28;20225;-92
2023/01/03 21:37:53;;;;;;;39.77;28.83;;;5.70;92.90;;;;;;5020998;28;20182;-92
2023/01/03 21:40:20;;;;;;;32.23;26.73;;;5.70;92.90;;;;;;5031284;28;20190;-93
2023/01/03 21:43:02;;;;;;;33.43;28.67;;;5.70;92.90;;;;;;5034471;28;20205;-93
2023/01/03 21:45:35;;;;;;;38.00;29.20;;;5.80;92.90;;;;;;5022220;28;20169;-93
2023/01/03 21:48:03;;;;;;;34.50;28.77;;;5.80;92.90;;;;;;5017320;28;20215;-92
2023/01/03 21:50:29;;;;;;;31.57;27.47;;;5.80;92.80;;;;;;5016762;28;20195;-92
2023/01/03 21:52:55;;;;;;;33.33;28.57;;;5.80;92.80;;;;;;5018455;28;20214;-93
2023/01/03 21:55:22;;;;;;;29.77;26.53;;;5.80;92.70;;;;;;5020356;28;20205;-92
2023/01/03 21:57:48;;;;;;;35.17;27.60;;;5.80;92.70;;;;;;5017243;28;20592;-92
2023/01/03 22:00:14;;;;;;;33.43;25.23;;;5.80;92.70;;;;;;5016478;28;20220;-93
2023/01/03 22:05:25;;;;;;;30.03;25.07;;;5.80;92.60;;;;;;5024315;28;20301;-92
2023/01/03 22:07:51;;;;;;;28.00;25.07;;;5.80;92.60;;;;;;5021857;28;20189;-92
2023/01/03 22:10:18;;;;;;;30.67;24.67;;;5.80;92.60;;;;;;5023542;28;20182;-92
2023/01/03 22:12:50;;;;;;;25.53;22.80;;;5.90;92.50;;;;;;5032477;28;20220;-93
2023/01/03 22:15:16;;;;;;;31.17;23.67;;;5.90;92.40;;;;;;5021700;28;20173;-92
2023/01/03 22:17:42;;;;;;;30.20;23.40;;;6.00;92.20;;;;;;5021561;28;20182;-92
2023/01/03 22:20:11;;;;;;;25.17;22.60;;;6.00;92.10;;;;;;5020822;28;20231;-92
2023/01/03 22:22:38;;;;;;;24.17;21.40;;;6.00;92.00;;;;;;5026128;28;20205;-92
2023/01/03 22:25:05;;;;;;;26.57;20.87;;;6.00;91.90;;;;;;5020972;28;20193;-92
2023/01/03 22:30:06;;;;;;;23.30;20.83;;;6.00;91.70;;;;;;5013740;28;20221;-91
2023/01/03 22:32:32;;;;;;;24.77;19.03;;;6.10;91.70;;;;;;5010750;28;20202;-93
2023/01/03 22:34:58;;;;;;;21.03;19.10;;;6.10;91.60;;;;;;5007331;28;20278;-92
2023/01/03 22:37:24;;;;;;;27.23;20.87;;;6.00;91.50;;;;;;4999585;28;20184;-92
2023/01/03 22:39:51;;;;;;;22.60;19.80;;;6.00;91.50;;;;;;5004687;28;20525;-92
2023/01/03 22:42:18;;;;;;;21.43;19.20;;;6.00;91.50;;;;;;4994632;28;20735;-92
2023/01/03 22:44:43;;;;;;;21.00;18.73;;;6.00;91.50;;;;;;4994315;28;20182;-92
2023/01/03 22:47:09;;;;;;;22.60;19.30;;;6.00;91.40;;;;;;4994368;28;20232;-90
2023/01/03 22:49:36;;;;;;;21.33;17.83;;;6.00;91.40;;;;;;4995087;28;20212;-93
2023/01/03 22:52:02;;;;;;;20.27;18.37;;;5.90;91.40;;;;;;5005312;28;20197;-92
2023/01/03 22:54:27;;;;;;;20.03;18.07;;;5.90;91.40;;;;;;5014538;28;20220;-92
2023/01/03 22:56:56;;;;;;;19.37;16.90;;;5.90;91.30;;;;;;5005031;28;20182;-92
2023/01/03 22:59:22;;;;;;;22.43;18.47;;;6.00;91.30;;;;;;4999290;28;20186;-92
2023/01/03 23:01:49;;;;;;;18.00;16.10;;;6.00;91.20;;;;;;5003163;28;20209;-93
2023/01/03 23:04:15;;;;;;;19.87;16.17;;;6.00;91.20;;;;;;4995042;28;20193;-92
2023/01/03 23:06:40;;;;;;;19.50;16.10;;;6.00;91.10;;;;;;4995950;28;20182;-92
2023/01/03 23:09:06;;;;;;;19.17;15.87;;;6.00;91.00;;;;;;5000322;28;20182;-93
2023/01/03 23:14:18;;;;;;;17.67;15.43;;;6.00;91.10;;;;;;5013862;28;20217;-93
2023/01/03 23:16:45;;;;;;;16.50;14.90;;;6.00;91.00;;;;;;5013243;28;20158;-93
2023/01/03 23:19:15;;;;;;;17.60;15.40;;;6.00;91.00;;;;;;5010532;28;20186;-93
2023/01/03 23:21:41;;;;;;;16.43;14.83;;;6.10;90.90;;;;;;5007334;28;20213;-93
2023/01/03 23:24:18;;;;;;;16.20;14.50;;;6.10;90.80;;;;;;5009554;28;20200;-92
2023/01/03 23:26:44;;;;;;;16.33;14.50;;;6.10;90.60;;;;;;5000008;28;20170;-92